createdAt,value
2018-12-09T00:00:04.020Z,93.59
2018-12-09T00:02:31.657Z,93.79
2018-12-09T00:04:59.211Z,93.68
2018-12-09T00:07:26.786Z,93.71
2018-12-09T00:09:54.465Z,93.49
2018-12-09T00:12:22.012Z,93.58
2018-12-09T00:14:49.609Z,93.70
2018-12-09T00:17:17.129Z,93.83
2018-12-09T00:19:44.701Z,93.83
2018-12-09T00:22:12.389Z,93.66
2018-12-09T00:24:40.675Z,93.72
2018-12-09T00:27:08.237Z,93.64
2018-12-09T00:29:35.789Z,93.39
2018-12-09T00:32:03.522Z,93.46
2018-12-09T00:34:32.303Z,93.42
2018-12-09T00:36:59.849Z,93.28
2018-12-09T00:39:27.477Z,93.25
2018-12-09T00:41:55.067Z,93.11
2018-12-09T00:44:23.310Z,92.56
2018-12-09T00:46:50.854Z,91.22
2018-12-09T00:49:18.445Z,90.70
2018-12-09T00:51:45.984Z,89.62
2018-12-09T00:54:13.509Z,89.15
2018-12-09T00:56:41.091Z,88.51
2018-12-09T00:59:08.622Z,88.14
2018-12-09T01:01:36.174Z,88.12
2018-12-09T01:04:03.763Z,87.27
2018-12-09T01:06:31.290Z,87.32
2018-12-09T01:08:58.825Z,87.25
2018-12-09T01:11:26.428Z,87.17
2018-12-09T01:13:53.957Z,86.78
2018-12-09T01:16:22.358Z,86.81
2018-12-09T01:18:49.894Z,86.77
2018-12-09T01:21:17.449Z,85.94
2018-12-09T01:23:45.229Z,85.41
2018-12-09T01:26:12.829Z,85.48
2018-12-09T01:28:40.725Z,85.89
2018-12-09T01:31:08.276Z,85.46
2018-12-09T01:33:35.926Z,85.55
2018-12-09T01:36:03.600Z,85.47
2018-12-09T01:38:31.241Z,85.15
2018-12-09T01:40:58.981Z,85.63
2018-12-09T01:43:26.500Z,85.00
2018-12-09T01:45:54.162Z,84.96
2018-12-09T01:48:21.740Z,84.90
2018-12-09T01:50:49.290Z,84.84
2018-12-09T01:53:22.630Z,85.29
2018-12-09T01:55:50.197Z,85.34
2018-12-09T01:58:17.852Z,85.62
2018-12-09T02:00:45.660Z,85.76
2018-12-09T02:03:13.600Z,85.87
2018-12-09T02:05:41.147Z,85.43
2018-12-09T02:08:08.731Z,85.47
2018-12-09T02:10:36.270Z,85.14
2018-12-09T02:13:03.927Z,85.09
2018-12-09T02:15:31.628Z,85.51
2018-12-09T02:17:59.277Z,85.69
2018-12-09T02:20:26.862Z,86.22
2018-12-09T02:22:54.708Z,86.24
2018-12-09T02:25:22.236Z,86.36
2018-12-09T02:27:49.778Z,86.40
2018-12-09T02:30:17.336Z,86.77
2018-12-09T02:32:44.905Z,86.81
2018-12-09T02:35:12.694Z,87.17
2018-12-09T02:37:40.775Z,86.58
2018-12-09T02:40:08.421Z,86.51
2018-12-09T02:42:36.315Z,84.76
2018-12-09T02:45:04.150Z,84.16
2018-12-09T02:47:31.699Z,83.02
2018-12-09T02:49:59.269Z,83.80
2018-12-09T02:52:26.833Z,83.93
2018-12-09T02:54:54.824Z,82.64
2018-12-09T02:57:22.686Z,83.14
2018-12-09T02:59:50.217Z,83.83
2018-12-09T03:02:17.777Z,84.33
2018-12-09T03:04:45.460Z,84.60
2018-12-09T03:07:13.034Z,84.86
2018-12-09T03:09:40.826Z,85.07
2018-12-09T03:12:08.373Z,84.51
2018-12-09T03:14:35.919Z,84.18
2018-12-09T03:17:03.484Z,84.11
2018-12-09T03:19:31.030Z,84.01
2018-12-09T03:21:58.556Z,84.35
2018-12-09T03:24:26.093Z,84.14
2018-12-09T03:26:55.087Z,84.01
2018-12-09T03:29:22.817Z,83.45
2018-12-09T03:31:50.432Z,83.77
2018-12-09T03:34:17.998Z,83.92
2018-12-09T03:36:45.964Z,83.78
2018-12-09T03:39:13.622Z,84.80
2018-12-09T03:41:41.314Z,84.68
2018-12-09T03:44:08.886Z,85.31
2018-12-09T03:46:36.457Z,85.66
2018-12-09T03:49:04.543Z,85.76
2018-12-09T03:51:32.077Z,85.56
2018-12-09T03:53:59.808Z,85.41
2018-12-09T03:56:27.361Z,85.27
2018-12-09T03:58:54.914Z,85.49
2018-12-09T04:01:22.851Z,85.32
2018-12-09T04:03:50.426Z,85.17
2018-12-09T04:06:17.981Z,85.08
2018-12-09T04:08:45.894Z,84.97
2018-12-09T04:11:13.454Z,84.82
2018-12-09T04:13:41.501Z,83.56
2018-12-09T04:16:09.058Z,83.78
2018-12-09T04:18:36.693Z,84.33
2018-12-09T04:21:04.290Z,85.70
2018-12-09T04:23:31.866Z,86.03
2018-12-09T04:25:59.767Z,86.61
2018-12-09T04:28:27.395Z,86.34
2018-12-09T04:30:54.978Z,86.41
2018-12-09T04:33:22.534Z,86.18
2018-12-09T04:35:50.081Z,86.55
2018-12-09T04:38:18.024Z,85.72
2018-12-09T04:40:45.666Z,86.02
2018-12-09T04:43:13.194Z,86.65
2018-12-09T04:45:40.730Z,86.51
2018-12-09T04:48:08.248Z,86.51
2018-12-09T04:50:36.229Z,86.50
2018-12-09T04:53:03.789Z,86.46
2018-12-09T04:55:31.323Z,86.58
2018-12-09T04:57:58.852Z,86.70
2018-12-09T05:00:32.058Z,86.46
2018-12-09T05:02:59.737Z,86.32
2018-12-09T05:05:28.037Z,86.28
2018-12-09T05:07:55.575Z,86.65
2018-12-09T05:10:23.088Z,86.25
2018-12-09T05:12:50.646Z,86.09
2018-12-09T05:15:18.194Z,86.30
2018-12-09T05:17:45.759Z,86.41
2018-12-09T05:20:13.370Z,86.87
2018-12-09T05:22:40.892Z,86.80
2018-12-09T05:25:08.420Z,86.72
2018-12-09T05:27:35.984Z,86.67
2018-12-09T05:30:03.998Z,86.96
2018-12-09T05:32:31.563Z,86.98
2018-12-09T05:34:59.170Z,87.14
2018-12-09T05:37:26.827Z,86.93
2018-12-09T05:39:55.471Z,86.63
2018-12-09T05:42:23.104Z,86.53
2018-12-09T05:44:50.657Z,86.05
2018-12-09T05:47:18.309Z,86.42
2018-12-09T05:49:45.847Z,86.18
2018-12-09T05:52:14.341Z,86.29
2018-12-09T05:54:41.893Z,86.25
2018-12-09T05:57:09.425Z,86.31
2018-12-09T05:59:37.032Z,86.42
2018-12-09T06:02:10.493Z,85.91
2018-12-09T06:04:38.060Z,85.60
2018-12-09T06:07:05.613Z,86.17
2018-12-09T06:09:33.280Z,85.52
2018-12-09T06:12:00.843Z,85.20
2018-12-09T06:14:28.375Z,85.07
2018-12-09T06:16:55.918Z,84.29
2018-12-09T06:19:23.461Z,84.49
2018-12-09T06:21:51.008Z,84.17
2018-12-09T06:24:18.554Z,84.13
2018-12-09T06:26:46.096Z,83.82
2018-12-09T06:29:13.665Z,84.24
2018-12-09T06:31:41.201Z,83.70
2018-12-09T06:34:08.908Z,83.98
2018-12-09T06:36:36.666Z,84.27
2018-12-09T06:39:04.787Z,84.53
2018-12-09T06:41:32.352Z,84.71
2018-12-09T06:43:59.886Z,84.88
2018-12-09T06:46:27.409Z,84.24
2018-12-09T06:48:55.108Z,83.78
2018-12-09T06:51:22.646Z,83.93
2018-12-09T06:53:50.532Z,83.93
2018-12-09T06:56:18.057Z,83.87
2018-12-09T06:58:45.605Z,83.25
2018-12-09T07:01:13.173Z,83.02
2018-12-09T07:03:40.848Z,82.26
2018-12-09T07:06:08.453Z,81.74
2018-12-09T07:08:36.054Z,81.34
2018-12-09T07:11:03.606Z,81.35
2018-12-09T07:13:31.194Z,81.71
2018-12-09T07:15:58.716Z,81.58
2018-12-09T07:18:26.306Z,81.77
2018-12-09T07:20:53.948Z,81.23
2018-12-09T07:23:21.514Z,81.26
2018-12-09T07:25:49.057Z,82.03
2018-12-09T07:28:16.630Z,82.36
2018-12-09T07:30:44.173Z,81.90
2018-12-09T07:33:12.207Z,81.49
2018-12-09T07:35:39.737Z,81.12
2018-12-09T07:38:07.311Z,81.02
2018-12-09T07:40:34.833Z,81.77
2018-12-09T07:43:02.376Z,81.73
2018-12-09T07:45:30.074Z,80.94
2018-12-09T07:47:57.630Z,81.06
2018-12-09T07:50:25.149Z,80.24
2018-12-09T07:52:52.722Z,80.47
2018-12-09T07:55:20.269Z,80.13
2018-12-09T07:57:47.837Z,80.50
2018-12-09T08:00:15.425Z,80.32
2018-12-09T08:02:43.084Z,79.70
2018-12-09T08:05:10.682Z,79.79
2018-12-09T08:07:38.313Z,78.81
2018-12-09T08:10:05.961Z,78.72
2018-12-09T08:12:33.578Z,79.19
2018-12-09T08:15:01.452Z,79.08
2018-12-09T08:17:29.014Z,79.44
2018-12-09T08:19:56.633Z,79.79
2018-12-09T08:22:24.204Z,79.45
2018-12-09T08:24:51.800Z,79.10
2018-12-09T08:27:19.384Z,79.39
2018-12-09T08:29:46.978Z,78.96
2018-12-09T08:32:14.555Z,78.94
2018-12-09T08:34:42.154Z,79.38
2018-12-09T08:37:09.717Z,78.31
2018-12-09T08:39:38.287Z,78.61
2018-12-09T08:42:05.881Z,78.45
2018-12-09T08:44:33.425Z,78.10
2018-12-09T08:47:00.994Z,78.14
2018-12-09T08:49:28.589Z,77.71
2018-12-09T08:51:56.161Z,77.88
2018-12-09T08:54:23.738Z,77.30
2018-12-09T08:56:51.341Z,77.23
2018-12-09T08:59:18.910Z,77.64
2018-12-09T09:01:46.494Z,78.18
2018-12-09T09:04:14.075Z,78.63
2018-12-09T09:06:41.654Z,78.74
2018-12-09T09:09:09.178Z,79.10
2018-12-09T09:11:36.762Z,79.32
2018-12-09T09:14:04.337Z,79.82
2018-12-09T09:16:31.939Z,79.49
2018-12-09T09:18:59.761Z,79.66
2018-12-09T09:21:27.400Z,80.24
2018-12-09T09:23:55.018Z,80.06
2018-12-09T09:26:22.585Z,80.50
2018-12-09T09:28:50.271Z,80.35
2018-12-09T09:31:17.829Z,80.92
2018-12-09T09:33:45.421Z,80.89
2018-12-09T09:36:13.032Z,81.40
2018-12-09T09:38:41.264Z,81.39
2018-12-09T09:41:08.839Z,81.31
2018-12-09T09:43:36.417Z,81.33
2018-12-09T09:46:04.003Z,81.79
2018-12-09T09:48:31.629Z,81.72
2018-12-09T09:50:59.240Z,81.60
2018-12-09T09:53:27.212Z,81.68
2018-12-09T09:55:54.805Z,82.13
2018-12-09T09:58:22.356Z,82.40
2018-12-09T10:00:49.969Z,82.53
2018-12-09T10:03:17.611Z,83.20
2018-12-09T10:05:45.141Z,82.91
2018-12-09T10:08:12.700Z,83.72
2018-12-09T10:10:40.301Z,84.15
2018-12-09T10:13:07.900Z,84.01
2018-12-09T10:15:35.519Z,84.16
2018-12-09T10:18:03.145Z,84.42
2018-12-09T10:20:30.794Z,84.35
2018-12-09T10:22:58.414Z,83.78
2018-12-09T10:25:26.034Z,84.07
2018-12-09T10:27:53.585Z,84.22
2018-12-09T10:30:21.194Z,84.18
2018-12-09T10:32:48.806Z,84.58
2018-12-09T10:35:16.400Z,84.31
2018-12-09T10:37:43.988Z,84.37
2018-12-09T10:40:11.725Z,83.85
2018-12-09T10:42:39.324Z,83.32
2018-12-09T10:45:07.043Z,82.90
2018-12-09T10:47:34.773Z,81.55
2018-12-09T10:50:02.778Z,81.58
2018-12-09T10:52:30.327Z,82.24
2018-12-09T10:54:58.010Z,81.58
2018-12-09T10:57:25.614Z,80.76
2018-12-09T10:59:53.196Z,80.60
2018-12-09T11:02:20.806Z,81.48
2018-12-09T11:04:48.397Z,81.20
2018-12-09T11:07:16.016Z,81.77
2018-12-09T11:09:43.621Z,82.13
2018-12-09T11:12:11.390Z,82.50
2018-12-09T11:14:39.108Z,82.67
2018-12-09T11:17:06.747Z,82.41
2018-12-09T11:19:34.325Z,82.24
2018-12-09T11:22:02.056Z,83.06
2018-12-09T11:24:29.627Z,83.18
2018-12-09T11:26:57.498Z,83.22
2018-12-09T11:29:25.164Z,83.12
2018-12-09T11:31:52.773Z,82.71
2018-12-09T11:34:20.350Z,82.89
2018-12-09T11:36:47.921Z,83.09
2018-12-09T11:39:16.394Z,82.81
2018-12-09T11:41:43.992Z,83.69
2018-12-09T11:44:11.565Z,84.19
2018-12-09T11:46:39.135Z,84.00
2018-12-09T11:49:06.759Z,84.26
2018-12-09T11:51:34.303Z,84.87
2018-12-09T11:54:02.535Z,85.03
2018-12-09T11:56:30.158Z,85.24
2018-12-09T11:58:57.723Z,85.02
2018-12-09T12:01:25.659Z,84.84
2018-12-09T12:03:53.274Z,85.02
2018-12-09T12:06:20.849Z,85.10
2018-12-09T12:08:48.473Z,84.81
2018-12-09T12:11:16.022Z,84.62
2018-12-09T12:13:43.636Z,84.27
2018-12-09T12:16:11.266Z,83.85
2018-12-09T12:18:38.905Z,84.96
2018-12-09T12:21:06.514Z,84.93
2018-12-09T12:23:34.094Z,85.04
2018-12-09T12:26:01.886Z,85.62
2018-12-09T12:28:29.772Z,86.12
2018-12-09T12:30:57.404Z,85.85
2018-12-09T12:33:25.331Z,85.29
2018-12-09T12:35:53.039Z,85.71
2018-12-09T12:38:20.669Z,85.90
2018-12-09T12:40:48.959Z,86.14
2018-12-09T12:43:16.603Z,86.58
2018-12-09T12:45:44.425Z,86.36
2018-12-09T12:48:12.019Z,86.64
2018-12-09T12:50:39.871Z,87.20
2018-12-09T12:53:07.547Z,87.32
2018-12-09T12:55:35.150Z,87.84
2018-12-09T12:58:02.776Z,87.52
2018-12-09T13:00:30.429Z,87.66
2018-12-09T13:02:58.024Z,87.85
2018-12-09T13:05:25.607Z,87.72
2018-12-09T13:07:53.203Z,87.54
2018-12-09T13:10:20.815Z,87.62
2018-12-09T13:12:48.465Z,87.20
2018-12-09T13:15:16.083Z,87.45
2018-12-09T13:17:43.684Z,87.42
2018-12-09T13:20:11.320Z,87.32
2018-12-09T13:22:38.933Z,87.12
2018-12-09T13:25:06.847Z,86.88
2018-12-09T13:27:34.436Z,86.96
2018-12-09T13:30:02.140Z,87.12
2018-12-09T13:32:30.110Z,87.10
2018-12-09T13:34:57.739Z,86.82
2018-12-09T13:37:25.330Z,86.78
2018-12-09T13:39:52.961Z,86.60
2018-12-09T13:42:20.575Z,86.46
2018-12-09T13:44:48.158Z,86.34
2018-12-09T13:47:32.284Z,86.38
2018-12-09T13:50:00.798Z,86.44
2018-12-09T13:52:30.123Z,86.54
2018-12-09T13:54:57.822Z,86.63
2018-12-09T13:57:25.393Z,86.99
2018-12-09T13:59:53.962Z,86.59
2018-12-09T14:02:21.584Z,86.44
2018-12-09T14:04:49.242Z,86.37
2018-12-09T14:07:16.873Z,86.69
2018-12-09T14:09:44.597Z,86.36
2018-12-09T14:12:12.170Z,86.12
2018-12-09T14:14:39.804Z,86.17
2018-12-09T14:17:07.591Z,86.47
2018-12-09T14:19:35.151Z,86.48
2018-12-09T14:22:03.115Z,86.49
2018-12-09T14:24:30.838Z,86.66
2018-12-09T14:26:58.401Z,86.40
2018-12-09T14:29:26.017Z,85.96
2018-12-09T14:31:53.860Z,86.85
2018-12-09T14:34:21.425Z,86.93
2018-12-09T14:36:49.055Z,86.90
2018-12-09T14:39:17.049Z,87.12
2018-12-09T14:41:44.633Z,87.28
2018-12-09T14:44:12.206Z,86.63
2018-12-09T14:46:40.133Z,86.82
2018-12-09T14:49:07.719Z,87.01
2018-12-09T14:51:35.299Z,87.09
2018-12-09T14:54:03.326Z,86.61
2018-12-09T14:56:30.915Z,86.39
2018-12-09T14:58:58.665Z,86.78
2018-12-09T15:01:26.359Z,86.53
2018-12-09T15:03:53.923Z,86.71
2018-12-09T15:06:21.453Z,87.48
2018-12-09T15:08:49.073Z,87.04
2018-12-09T15:11:16.636Z,87.14
2018-12-09T15:13:44.272Z,87.19
2018-12-09T15:16:11.890Z,87.15
2018-12-09T15:18:39.457Z,86.95
2018-12-09T15:21:07.084Z,86.71
2018-12-09T15:23:34.698Z,86.77
2018-12-09T15:26:02.264Z,86.97
2018-12-09T15:28:29.927Z,87.48
2018-12-09T15:30:57.534Z,87.70
2018-12-09T15:33:25.110Z,87.35
2018-12-09T15:35:52.848Z,87.52
2018-12-09T15:38:20.469Z,87.36
2018-12-09T15:40:48.049Z,87.57
2018-12-09T15:43:15.622Z,87.79
2018-12-09T15:45:43.216Z,88.17
2018-12-09T15:48:11.193Z,87.95
2018-12-09T15:50:38.790Z,87.86
2018-12-09T15:53:07.399Z,87.78
2018-12-09T15:55:35.090Z,88.33
2018-12-09T15:58:02.687Z,88.16
2018-12-09T16:00:39.714Z,88.25
2018-12-09T16:03:07.338Z,88.28
2018-12-09T16:05:34.937Z,88.27
2018-12-09T16:08:02.526Z,88.30
2018-12-09T16:10:30.099Z,88.46
2018-12-09T16:12:57.687Z,88.09
2018-12-09T16:15:25.263Z,88.03
2018-12-09T16:17:54.763Z,87.62
2018-12-09T16:20:22.708Z,87.62
2018-12-09T16:22:50.279Z,87.73
2018-12-09T16:25:17.861Z,87.72
2018-12-09T16:27:45.481Z,87.69
2018-12-09T16:30:13.062Z,88.01
2018-12-09T16:32:40.712Z,88.55
2018-12-09T16:35:08.828Z,88.54
2018-12-09T16:37:36.454Z,88.41
2018-12-09T16:40:04.710Z,88.48
2018-12-09T16:42:32.314Z,88.46
2018-12-09T16:44:59.895Z,88.47
2018-12-09T16:47:27.498Z,88.23
2018-12-09T16:49:55.086Z,88.11
2018-12-09T16:52:23.069Z,87.83
2018-12-09T16:54:50.645Z,88.36
2018-12-09T16:57:18.404Z,88.00
2018-12-09T16:59:46.311Z,88.05
2018-12-09T17:02:13.934Z,88.01
2018-12-09T17:04:41.546Z,88.40
2018-12-09T17:07:09.234Z,88.41
2018-12-09T17:09:36.803Z,88.60
2018-12-09T17:12:04.467Z,88.52
2018-12-09T17:14:32.212Z,88.79
2018-12-09T17:17:00.226Z,88.75
2018-12-09T17:19:27.840Z,88.91
2018-12-09T17:21:55.470Z,88.90
2018-12-09T17:24:23.144Z,89.17
2018-12-09T17:26:50.844Z,89.19
2018-12-09T17:29:18.369Z,89.17
2018-12-09T17:31:46.264Z,89.10
2018-12-09T17:34:13.894Z,89.38
2018-12-09T17:36:41.591Z,89.30
2018-12-09T17:39:09.337Z,89.24
2018-12-09T17:41:36.929Z,89.16
2018-12-09T17:44:04.490Z,89.36
2018-12-09T17:46:32.077Z,89.18
2018-12-09T17:48:59.671Z,89.39
2018-12-09T17:51:27.197Z,89.54
2018-12-09T17:53:54.866Z,89.27
2018-12-09T17:56:22.774Z,89.41
2018-12-09T17:58:50.370Z,89.48
2018-12-09T18:01:18.315Z,89.03
2018-12-09T18:03:45.946Z,88.99
2018-12-09T18:06:13.531Z,89.08
2018-12-09T18:08:41.149Z,89.20
2018-12-09T18:11:08.730Z,88.82
2018-12-09T18:13:36.348Z,88.65
2018-12-09T18:16:04.527Z,89.06
2018-12-09T18:18:32.224Z,89.41
2018-12-09T18:21:00.221Z,89.28
2018-12-09T18:23:27.858Z,88.85
2018-12-09T18:25:55.453Z,89.56
2018-12-09T18:28:23.081Z,89.30
2018-12-09T18:30:51.001Z,89.35
2018-12-09T18:33:19.013Z,89.00
2018-12-09T18:35:46.620Z,88.97
2018-12-09T18:38:14.338Z,88.93
2018-12-09T18:40:41.948Z,88.92
2018-12-09T18:43:09.542Z,88.62
2018-12-09T18:45:37.118Z,88.84
2018-12-09T18:48:04.720Z,88.95
2018-12-09T18:50:32.280Z,89.13
2018-12-09T18:52:59.869Z,89.15
2018-12-09T18:55:27.444Z,89.45
2018-12-09T18:57:54.985Z,89.65
2018-12-09T19:00:22.637Z,89.79
2018-12-09T19:02:50.249Z,89.96
2018-12-09T19:05:17.834Z,89.79
2018-12-09T19:07:45.683Z,90.03
2018-12-09T19:10:13.228Z,89.93
2018-12-09T19:12:40.828Z,90.17
2018-12-09T19:15:08.432Z,90.15
2018-12-09T19:17:36.032Z,90.29
2018-12-09T19:20:03.726Z,90.09
2018-12-09T19:22:31.369Z,89.62
2018-12-09T19:24:59.029Z,89.68
2018-12-09T19:27:26.644Z,89.62
2018-12-09T19:29:54.297Z,89.80
2018-12-09T19:32:21.918Z,89.68
2018-12-09T19:34:49.519Z,89.38
2018-12-09T19:37:17.117Z,89.82
2018-12-09T19:39:44.775Z,89.72
2018-12-09T19:42:12.429Z,89.41
2018-12-09T19:44:40.002Z,89.32
2018-12-09T19:47:07.621Z,89.45
2018-12-09T19:49:35.248Z,89.16
2018-12-09T19:52:03.052Z,89.52
2018-12-09T19:54:30.649Z,89.24
2018-12-09T19:56:58.276Z,89.50
2018-12-09T19:59:25.835Z,89.41
2018-12-09T20:01:53.693Z,89.00
2018-12-09T20:04:21.303Z,88.88
2018-12-09T20:06:48.940Z,88.34
2018-12-09T20:09:16.547Z,88.15
2018-12-09T20:11:44.158Z,87.95
2018-12-09T20:14:11.769Z,88.16
2018-12-09T20:16:39.414Z,88.28
2018-12-09T20:19:06.992Z,88.21
2018-12-09T20:21:34.559Z,88.17
2018-12-09T20:24:02.230Z,88.17
2018-12-09T20:26:29.966Z,87.42
2018-12-09T20:28:57.586Z,87.62
2018-12-09T20:31:25.146Z,87.78
2018-12-09T20:33:53.215Z,87.78
2018-12-09T20:36:20.827Z,87.64
2018-12-09T20:38:48.369Z,87.14
2018-12-09T20:41:16.306Z,87.09
2018-12-09T20:43:43.892Z,86.72
2018-12-09T20:46:11.505Z,86.41
2018-12-09T20:48:39.139Z,86.37
2018-12-09T20:51:07.233Z,86.04
2018-12-09T20:53:34.857Z,86.05
2018-12-09T20:56:02.450Z,85.57
2018-12-09T20:58:30.066Z,86.25
2018-12-09T21:00:57.645Z,86.31
2018-12-09T21:03:25.268Z,86.04
2018-12-09T21:05:52.895Z,86.31
2018-12-09T21:08:20.529Z,86.11
2018-12-09T21:10:48.123Z,86.39
2018-12-09T21:13:15.962Z,86.39
2018-12-09T21:15:43.615Z,86.63
2018-12-09T21:18:11.215Z,86.24
2018-12-09T21:20:38.830Z,86.32
2018-12-09T21:23:06.432Z,86.29
2018-12-09T21:25:34.036Z,86.26
2018-12-09T21:28:01.622Z,86.52
2018-12-09T21:30:29.280Z,86.61
2018-12-09T21:32:56.838Z,86.82
2018-12-09T21:35:24.413Z,87.08
2018-12-09T21:37:51.990Z,87.48
2018-12-09T21:40:19.555Z,87.39
2018-12-09T21:42:47.194Z,87.62
2018-12-09T21:45:14.789Z,87.78
2018-12-09T21:47:42.411Z,87.46
2018-12-09T21:50:10.011Z,86.64
2018-12-09T21:52:37.597Z,86.34
2018-12-09T21:55:05.510Z,86.88
2018-12-09T21:57:33.222Z,86.94
2018-12-09T22:00:00.785Z,87.04
2018-12-09T22:02:28.361Z,86.57
2018-12-09T22:04:56.005Z,86.64
2018-12-09T22:07:23.546Z,86.34
2018-12-09T22:09:51.218Z,86.56
2018-12-09T22:12:19.053Z,86.41
2018-12-09T22:14:46.778Z,86.09
2018-12-09T22:17:14.533Z,86.02
2018-12-09T22:19:42.230Z,85.72
2018-12-09T22:22:09.819Z,85.28
2018-12-09T22:24:37.432Z,85.16
2018-12-09T22:27:05.018Z,84.56
2018-12-09T22:29:32.577Z,85.03
2018-12-09T22:32:00.207Z,85.01
2018-12-09T22:34:27.802Z,85.02
2018-12-09T22:36:55.415Z,85.39
2018-12-09T22:39:22.975Z,85.02
2018-12-09T22:41:50.526Z,85.51
2018-12-09T22:44:18.079Z,85.48
2018-12-09T22:46:45.637Z,85.80
2018-12-09T22:49:13.219Z,85.78
2018-12-09T22:51:40.817Z,86.08
2018-12-09T22:54:08.365Z,86.20
2018-12-09T22:56:35.945Z,86.50
2018-12-09T22:59:03.537Z,86.93
2018-12-09T23:01:31.166Z,87.15
2018-12-09T23:03:58.862Z,87.07
2018-12-09T23:06:26.448Z,86.75
2018-12-09T23:08:54.294Z,86.77
2018-12-09T23:11:21.857Z,86.72
2018-12-09T23:13:49.873Z,86.80
2018-12-09T23:16:17.560Z,87.27
2018-12-09T23:18:45.144Z,87.44
2018-12-09T23:21:12.719Z,87.82
2018-12-09T23:23:40.258Z,87.77
2018-12-09T23:26:07.920Z,88.36
2018-12-09T23:28:35.490Z,88.51
2018-12-09T23:31:03.377Z,88.90
2018-12-09T23:33:30.952Z,88.71
2018-12-09T23:35:58.480Z,88.64
2018-12-09T23:38:26.069Z,88.82
2018-12-09T23:40:53.634Z,88.94
2018-12-09T23:43:21.199Z,89.63
2018-12-09T23:45:48.769Z,89.68
2018-12-09T23:48:16.299Z,89.70
2018-12-09T23:50:43.860Z,89.57
2018-12-09T23:53:11.423Z,89.69
2018-12-09T23:55:39.009Z,89.28
2018-12-09T23:58:06.552Z,88.86
